Time;durP1;ratioP1;P1;durP2;ratioP2;P2;SDS_P1;SDS_P2;PMS_P1;PMS_P2;Temp;Humidity;BMP_temperature;BMP_pressure;BME280_temperature;BME280_humidity;BME280_pressure;Samples;Min_cycle;Max_cycle;Signal;HPM_P1;HPM_P2
2021/03/10 00:00:48;;;;;;;0.00;0.00;;;;;;;;;;6258567;22;20000;-93
2021/03/10 00:03:14;;;;;;;0.00;0.00;;;;;;;;;;6259925;22;19999;-95
2021/03/10 00:05:39;;;;;;;0.00;0.00;;;;;;;;;;6257482;22;19991;-94
2021/03/10 00:08:05;;;;;;;0.00;0.00;;;;;;;;;;6256259;22;20014;-92
2021/03/10 00:10:31;;;;;;;0.00;0.00;;;;;;;;;;6242303;22;20434;-92
2021/03/10 00:12:56;;;;;;;0.00;0.00;;;;;;;;;;6252335;22;19999;-93
2021/03/10 00:15:22;;;;;;;0.00;0.00;;;;;;;;;;6240474;22;19996;-92
2021/03/10 00:17:47;;;;;;;0.00;0.00;;;;;;;;;;6256959;22;20041;-93
2021/03/10 00:20:13;;;;;;;0.00;0.00;;;;;;;;;;6257647;22;20000;-92
2021/03/10 00:22:39;;;;;;;0.00;0.00;;;;;;;;;;6256929;22;19999;-94
2021/03/10 00:25:05;;;;;;;0.00;0.00;;;;;;;;;;6256176;22;19999;-95
2021/03/10 00:27:33;;;;;;;0.00;0.00;;;;;;;;;;6258252;22;20088;-93
2021/03/10 00:29:59;;;;;;;0.00;0.00;;;;;;;;;;6257338;22;20037;-93
2021/03/10 00:32:26;;;;;;;0.00;0.00;;;;;;;;;;6256261;22;19995;-92
2021/03/10 00:34:51;;;;;;;0.00;0.00;;;;;;;;;;6257653;22;20079;-93
2021/03/10 00:37:17;;;;;;;0.00;0.00;;;;;;;;;;6256668;22;19999;-93
2021/03/10 00:39:43;;;;;;;0.00;0.00;;;;;;;;;;6245044;22;19999;-93
2021/03/10 00:42:09;;;;;;;0.00;0.00;;;;;;;;;;6252147;22;19999;-94
2021/03/10 00:44:35;;;;;;;0.00;0.00;;;;;;;;;;6256119;22;19999;-93
2021/03/10 00:47:00;;;;;;;0.00;0.00;;;;;;;;;;6255889;22;20021;-95
2021/03/10 00:49:25;;;;;;;0.00;0.00;;;;;;;;;;6244894;22;19999;-94
2021/03/10 00:51:51;;;;;;;0.00;0.00;;;;;;;;;;6252476;22;20327;-93
2021/03/10 00:54:16;;;;;;;0.00;0.00;;;;;;;;;;6255355;22;20015;-92
2021/03/10 00:56:42;;;;;;;0.00;0.00;;;;;;;;;;6243438;22;20003;-93
2021/03/10 00:59:07;;;;;;;0.00;0.00;;;;;;;;;;6256182;22;19995;-93
2021/03/10 01:01:33;;;;;;;0.10;0.10;;;;;;;;;;6241910;22;20353;-92
2021/03/10 01:03:58;;;;;;;0.00;0.00;;;;;;;;;;6257754;22;19999;-94
2021/03/10 01:06:25;;;;;;;0.00;0.00;;;;;;;;;;6257766;22;19999;-93
2021/03/10 01:08:51;;;;;;;0.00;0.00;;;;;;;;;;6243029;22;20002;-93
2021/03/10 01:11:16;;;;;;;0.00;0.00;;;;;;;;;;6254497;22;20011;-93
2021/03/10 01:13:44;;;;;;;0.00;0.00;;;;;;;;;;6242291;22;20021;-93
2021/03/10 01:16:10;;;;;;;0.00;0.00;;;;;;;;;;6257289;22;20006;-92
2021/03/10 01:18:38;;;;;;;0.00;0.00;;;;;;;;;;6257777;22;20035;-94
2021/03/10 01:21:06;;;;;;;0.00;0.00;;;;;;;;;;6245330;22;20010;-93
2021/03/10 01:23:32;;;;;;;0.00;0.00;;;;;;;;;;6253739;22;20021;-93
2021/03/10 01:25:58;;;;;;;0.00;0.00;;;;;;;;;;6258834;22;20015;-93
2021/03/10 01:28:23;;;;;;;0.00;0.00;;;;;;;;;;6242526;22;20000;-93
2021/03/10 01:30:49;;;;;;;0.00;0.00;;;;;;;;;;6256790;22;20060;-94
2021/03/10 01:33:15;;;;;;;0.00;0.00;;;;;;;;;;6240250;22;19995;-94
2021/03/10 01:35:49;;;;;;;0.00;0.00;;;;;;;;;;6260536;22;20423;-93
2021/03/10 01:38:17;;;;;;;0.00;0.00;;;;;;;;;;6249732;22;20064;-93
2021/03/10 01:40:43;;;;;;;0.75;0.75;;;;;;;;;;6251286;22;20003;-93
2021/03/10 01:43:11;;;;;;;0.00;0.00;;;;;;;;;;6251666;22;20020;-93
2021/03/10 01:45:39;;;;;;;4.75;4.43;;;;;;;;;;6260794;22;19999;-92
2021/03/10 01:48:08;;;;;;;0.00;0.00;;;;;;;;;;6259909;22;20002;-93
2021/03/10 01:50:34;;;;;;;0.00;0.00;;;;;;;;;;6261147;22;19999;-93
2021/03/10 01:53:19;;;;;;;0.00;0.00;;;;;;;;;;6241906;22;20042;-94
2021/03/10 01:55:48;;;;;;;0.00;0.00;;;;;;;;;;6251050;22;20015;-93
2021/03/10 01:58:19;;;;;;;0.00;0.00;;;;;;;;;;6226525;23;20071;-94
2021/03/10 02:00:45;;;;;;;0.00;0.00;;;;;;;;;;6191171;23;20007;-93
2021/03/10 02:03:21;;;;;;;0.20;0.20;;;;;;;;;;6189475;23;20007;-93
2021/03/10 02:06:32;;;;;;;0.00;0.00;;;;;;;;;;6208888;23;20000;-93
2021/03/10 02:09:04;;;;;;;0.00;0.00;;;;;;;;;;6224572;23;20004;-94
2021/03/10 02:11:32;;;;;;;0.00;0.00;;;;;;;;;;6204294;23;20046;-93
2021/03/10 02:14:16;;;;;;;0.00;0.00;;;;;;;;;;6228187;22;20007;-94
2021/03/10 02:16:55;;;;;;;0.03;0.03;;;;;;;;;;6232746;22;19998;-93
2021/03/10 02:19:36;;;;;;;0.00;0.00;;;;;;;;;;6231870;22;20324;-94
2021/03/10 02:22:11;;;;;;;0.00;0.00;;;;;;;;;;6232023;22;20000;-92
2021/03/10 02:25:00;;;;;;;0.00;0.00;;;;;;;;;;6229620;22;20058;-93
2021/03/10 13:31:52;;;;;;;0.00;0.00;;;;;;;;;;6061591;23;20497;-94
2021/03/10 13:49:56;;;;;;;0.00;0.00;;;;;;;;;;5999634;23;20007;-94
2021/03/10 13:56:12;;;;;;;8.10;2.63;;;;;;;;;;6016307;23;20064;-96
2021/03/10 13:58:42;;;;;;;0.00;0.00;;;;;;;;;;6079042;23;19998;-92
2021/03/10 14:01:17;;;;;;;1.45;1.35;;;;;;;;;;6124709;23;20004;-94
2021/03/10 14:03:56;;;;;;;0.00;0.00;;;;;;;;;;6143097;23;19997;-94
2021/03/10 14:06:22;;;;;;;0.00;0.00;;;;;;;;;;6177491;22;20067;-94
2021/03/10 14:08:53;;;;;;;0.00;0.00;;;;;;;;;;6284189;22;20023;-95
2021/03/10 14:11:19;;;;;;;1.08;1.02;;;;;;;;;;6295210;22;20027;-95
2021/03/10 14:13:45;;;;;;;0.00;0.00;;;;;;;;;;6293481;22;19999;-93
2021/03/10 14:16:13;;;;;;;0.20;0.20;;;;;;;;;;6291341;22;20014;-93
2021/03/10 14:37:47;;;;;;;7.90;6.03;;;;;;;;;;6023055;23;20068;-95
2021/03/10 14:43:51;;;;;;;6.32;5.78;;;;;;;;;;6120133;23;20010;-94
2021/03/10 14:58:42;;;;;;;1.80;1.70;;;;;;;;;;6024833;23;20040;-94
2021/03/10 15:04:40;;;;;;;0.00;0.00;;;;;;;;;;6120362;23;20021;-95
2021/03/10 17:25:21;;;;;;;1.85;1.75;;;;;;;;;;6318121;22;20027;-94
2021/03/10 17:30:50;;;;;;;41.38;7.10;;;;;;;;;;6273690;22;20101;-95
2021/03/10 17:33:32;;;;;;;5.85;2.75;;;;;;;;;;6267333;22;19999;-96
2021/03/10 17:36:00;;;;;;;6.85;2.50;;;;;;;;;;6293250;22;19999;-94
2021/03/10 17:38:36;;;;;;;4.38;2.95;;;;;;;;;;6263034;22;20017;-95
2021/03/10 17:41:19;;;;;;;1.50;0.80;;;;;;;;;;6266236;22;20014;-95
2021/03/10 17:44:50;;;;;;;2.40;2.28;;;;;;;;;;6262519;22;20029;-96
2021/03/10 17:46:53;;;;;;;15.57;2.45;;;;;;;;;;6263460;22;20007;-96
2021/03/10 17:49:21;;;;;;;5.20;3.22;;;;;;;;;;6263716;22;20032;-96
2021/03/10 17:51:55;;;;;;;0.98;0.82;;;;;;;;;;6266285;22;20056;-94
2021/03/10 17:54:57;;;;;;;1.77;1.40;;;;;;;;;;6264974;22;19999;-96
2021/03/10 18:00:33;;;;;;;80.85;5.07;;;;;;;;;;6252582;22;19992;-94
2021/03/10 18:03:14;;;;;;;8.82;3.03;;;;;;;;;;6271759;22;19995;-95
2021/03/10 18:06:02;;;;;;;8.02;5.50;;;;;;;;;;6272615;22;20077;-95
2021/03/10 18:08:37;;;;;;;24.65;2.17;;;;;;;;;;6272256;22;20426;-96
2021/03/10 18:11:11;;;;;;;0.00;0.00;;;;;;;;;;6268419;22;20003;-94
2021/03/10 18:13:42;;;;;;;0.85;0.85;;;;;;;;;;6261115;22;20019;-94
2021/03/10 18:16:22;;;;;;;9.65;3.20;;;;;;;;;;6267128;22;19995;-94
2021/03/10 18:18:48;;;;;;;;;;;;;;;;;;6271483;22;19995;-94
2021/03/10 18:21:16;;;;;;;3.95;3.22;;;;;;;;;;6292953;22;20302;-94
2021/03/10 18:24:13;;;;;;;2.83;2.30;;;;;;;;;;6267999;22;20030;-95
2021/03/10 18:26:53;;;;;;;14.35;5.57;;;;;;;;;;6293886;22;20003;-95
2021/03/10 18:29:26;;;;;;;;;;;;;;;;;;6273780;22;20018;-96
2021/03/10 18:34:42;;;;;;;2.17;2.08;;;;;;;;;;6163507;23;20012;-94
2021/03/10 18:37:10;;;;;;;2.78;1.80;;;;;;;;;;6134333;23;20048;-92
2021/03/10 18:39:47;;;;;;;1.98;1.80;;;;;;;;;;6137087;23;19993;-94
2021/03/10 18:45:34;;;;;;;2.40;2.20;;;;;;;;;;6057210;23;20071;-95
2021/03/10 18:51:14;;;;;;;15.23;5.63;;;;;;;;;;6024082;23;20003;-93
2021/03/10 18:53:47;;;;;;;5.05;2.60;;;;;;;;;;6033837;23;20002;-93
2021/03/10 18:56:15;;;;;;;2.50;2.38;;;;;;;;;;6083239;23;20000;-93
2021/03/10 18:58:57;;;;;;;0.10;0.10;;;;;;;;;;6174879;23;20038;-92
2021/03/10 19:01:40;;;;;;;6.97;4.15;;;;;;;;;;6172175;23;20095;-94
2021/03/10 19:04:06;;;;;;;9.32;2.42;;;;;;;;;;6179247;22;20001;-94
2021/03/10 19:06:32;;;;;;;0.57;0.57;;;;;;;;;;6262223;22;20034;-92
2021/03/10 19:08:58;;;;;;;0.00;0.00;;;;;;;;;;6262439;22;20008;-92
2021/03/10 19:11:29;;;;;;;0.20;0.20;;;;;;;;;;6259379;22;20070;-91
2021/03/10 19:13:54;;;;;;;2.72;1.70;;;;;;;;;;6257930;22;20026;-94
2021/03/10 19:16:20;;;;;;;3.20;0.75;;;;;;;;;;6265465;22;19995;-93
2021/03/10 19:18:46;;;;;;;0.05;0.05;;;;;;;;;;6259868;22;20006;-92
2021/03/10 19:21:11;;;;;;;0.47;0.35;;;;;;;;;;6261590;22;20025;-92
2021/03/10 19:23:37;;;;;;;0.10;0.10;;;;;;;;;;6257608;22;20027;-90
2021/03/10 19:26:02;;;;;;;3.28;2.03;;;;;;;;;;6260054;22;20007;-92
2021/03/10 19:28:28;;;;;;;2.55;2.40;;;;;;;;;;6260194;22;20006;-93
2021/03/10 19:30:54;;;;;;;0.00;0.00;;;;;;;;;;6255979;22;20035;-93
2021/03/10 19:33:19;;;;;;;0.82;0.82;;;;;;;;;;6258047;22;20052;-92
2021/03/10 19:35:50;;;;;;;0.00;0.00;;;;;;;;;;6256399;22;19995;-93
2021/03/10 19:38:15;;;;;;;1.27;1.27;;;;;;;;;;6260269;22;20077;-94
2021/03/10 19:40:41;;;;;;;2.25;2.05;;;;;;;;;;6257928;22;19999;-92
2021/03/10 19:43:07;;;;;;;0.75;0.75;;;;;;;;;;6257527;22;20000;-92
2021/03/10 19:45:32;;;;;;;7.95;6.88;;;;;;;;;;6256128;22;20009;-92
2021/03/10 19:47:58;;;;;;;23.63;9.27;;;;;;;;;;6256289;22;20052;-93
2021/03/10 19:50:23;;;;;;;5.93;5.15;;;;;;;;;;6256409;22;20022;-94
2021/03/10 19:52:49;;;;;;;8.38;2.95;;;;;;;;;;6249854;22;19999;-94
2021/03/10 19:55:15;;;;;;;2.75;2.65;;;;;;;;;;6257699;22;20048;-93
2021/03/10 19:57:41;;;;;;;1.60;1.35;;;;;;;;;;6254086;22;20025;-93
2021/03/10 20:00:07;;;;;;;6.97;4.38;;;;;;;;;;6260087;22;20384;-93
2021/03/10 20:02:35;;;;;;;0.28;0.28;;;;;;;;;;6259767;22;19999;-94
2021/03/10 20:05:00;;;;;;;0.00;0.00;;;;;;;;;;6263899;22;20082;-93
2021/03/10 20:07:26;;;;;;;11.93;2.20;;;;;;;;;;6266886;22;19995;-94
2021/03/10 20:09:51;;;;;;;0.00;0.00;;;;;;;;;;6261778;22;19999;-96
2021/03/10 20:12:22;;;;;;;0.38;0.38;;;;;;;;;;6261131;22;20296;-94
2021/03/10 20:14:53;;;;;;;0.00;0.00;;;;;;;;;;6267278;22;19999;-93
2021/03/10 20:17:30;;;;;;;0.70;0.65;;;;;;;;;;6266163;22;20029;-94
2021/03/10 20:19:56;;;;;;;0.25;0.25;;;;;;;;;;6262566;22;19991;-94
2021/03/10 20:22:22;;;;;;;1.65;1.55;;;;;;;;;;6281435;22;20334;-93
2021/03/10 20:24:47;;;;;;;2.00;1.90;;;;;;;;;;6257214;22;20019;-96
2021/03/10 20:27:13;;;;;;;0.00;0.00;;;;;;;;;;6257357;22;20092;-93
2021/03/10 20:29:39;;;;;;;0.00;0.00;;;;;;;;;;6283700;22;20021;-93
2021/03/10 20:32:04;;;;;;;0.20;0.20;;;;;;;;;;6258359;22;20003;-93
2021/03/10 20:34:30;;;;;;;1.70;1.60;;;;;;;;;;6259464;22;20027;-94
2021/03/10 20:36:55;;;;;;;0.00;0.00;;;;;;;;;;6261680;22;19995;-94
2021/03/10 20:39:23;;;;;;;0.55;0.52;;;;;;;;;;6258785;22;19996;-93
2021/03/10 20:41:49;;;;;;;0.52;0.52;;;;;;;;;;6256716;22;20035;-94
2021/03/10 20:44:14;;;;;;;0.00;0.00;;;;;;;;;;6258349;22;20492;-93
2021/03/10 20:46:40;;;;;;;0.00;0.00;;;;;;;;;;6257063;22;20082;-94
2021/03/10 20:49:06;;;;;;;0.52;0.52;;;;;;;;;;6259596;22;19999;-94
2021/03/10 20:51:32;;;;;;;0.00;0.00;;;;;;;;;;6257968;22;19999;-92
2021/03/10 20:53:57;;;;;;;0.00;0.00;;;;;;;;;;6255981;22;20017;-92
2021/03/10 20:56:22;;;;;;;0.00;0.00;;;;;;;;;;6256118;22;20006;-94
2021/03/10 20:58:48;;;;;;;0.10;0.10;;;;;;;;;;6256463;22;20025;-94
2021/03/10 21:01:14;;;;;;;0.00;0.00;;;;;;;;;;6260642;22;19999;-94
2021/03/10 21:03:39;;;;;;;0.25;0.08;;;;;;;;;;6263212;22;20003;-94
2021/03/10 21:06:07;;;;;;;0.00;0.00;;;;;;;;;;6260001;22;20014;-93
2021/03/10 21:08:33;;;;;;;0.05;0.05;;;;;;;;;;6256711;22;20082;-92
2021/03/10 21:10:59;;;;;;;0.00;0.00;;;;;;;;;;6256609;22;20436;-94
2021/03/10 21:13:25;;;;;;;0.10;0.10;;;;;;;;;;6259323;22;20034;-94
2021/03/10 21:15:50;;;;;;;0.25;0.25;;;;;;;;;;6258092;22;19996;-94
2021/03/10 21:18:25;;;;;;;9.30;1.55;;;;;;;;;;6260651;22;19995;-94
2021/03/10 21:20:50;;;;;;;0.00;0.00;;;;;;;;;;6256632;22;20003;-93
2021/03/10 21:23:21;;;;;;;1.65;0.80;;;;;;;;;;6258066;22;20038;-93
2021/03/10 21:25:46;;;;;;;;;;;;;;;;;;6259917;22;20060;-93
2021/03/10 21:28:13;;;;;;;0.00;0.00;;;;;;;;;;6284035;22;19918;-94
2021/03/10 21:30:38;;;;;;;0.30;0.30;;;;;;;;;;6256731;22;20186;-92
2021/03/10 21:33:30;;;;;;;0.32;0.32;;;;;;;;;;6245017;22;20022;-93
2021/03/10 21:39:21;;;;;;;0.00;0.00;;;;;;;;;;6289441;22;20011;-94
2021/03/10 21:45:20;;;;;;;0.00;0.00;;;;;;;;;;6211094;22;20305;-96
2021/03/10 21:50:42;;;;;;;0.00;0.00;;;;;;;;;;6181904;23;20008;-94
2021/03/10 21:53:10;;;;;;;0.52;0.52;;;;;;;;;;6161503;23;20160;-95
2021/03/10 21:55:36;;;;;;;0.00;0.00;;;;;;;;;;6234883;22;19996;-93
2021/03/10 21:58:02;;;;;;;13.25;4.50;;;;;;;;;;6267487;22;20024;-94
2021/03/10 22:00:47;;;;;;;0.25;0.25;;;;;;;;;;6266771;22;20006;-95
2021/03/10 22:03:16;;;;;;;15.48;3.72;;;;;;;;;;6273132;22;20006;-96
2021/03/10 22:05:42;;;;;;;2.92;2.55;;;;;;;;;;6255637;22;20004;-95
2021/03/10 22:08:10;;;;;;;0.40;0.40;;;;;;;;;;6262992;22;19995;-95
2021/03/10 22:10:39;;;;;;;0.47;0.47;;;;;;;;;;6265333;22;20078;-94
2021/03/10 22:13:09;;;;;;;0.47;0.45;;;;;;;;;;6268395;22;20054;-95
2021/03/10 22:15:40;;;;;;;77.10;8.23;;;;;;;;;;6266313;22;19999;-93
2021/03/10 22:18:18;;;;;;;1.25;1.25;;;;;;;;;;6270056;22;19995;-94
2021/03/10 22:20:43;;;;;;;1.85;0.95;;;;;;;;;;6270329;22;19999;-95
2021/03/10 22:23:15;;;;;;;46.60;8.27;;;;;;;;;;6263069;22;20034;-95
2021/03/10 22:25:44;;;;;;;4.25;2.33;;;;;;;;;;6266290;22;20045;-94
2021/03/10 22:28:09;;;;;;;0.40;0.40;;;;;;;;;;6265926;22;20007;-95
2021/03/10 22:30:40;;;;;;;2.30;1.30;;;;;;;;;;6268382;22;20038;-95
2021/03/10 22:33:09;;;;;;;16.63;3.72;;;;;;;;;;6266279;22;19995;-94
2021/03/10 22:35:55;;;;;;;0.55;0.55;;;;;;;;;;6268649;22;20505;-94
2021/03/10 22:38:55;;;;;;;0.00;0.00;;;;;;;;;;6264739;22;20015;-94
2021/03/10 22:41:25;;;;;;;2.55;1.65;;;;;;;;;;6198612;22;20046;-93
2021/03/10 22:50:17;;;;;;;0.22;0.22;;;;;;;;;;6200268;23;20024;-95
2021/03/10 23:02:00;;;;;;;;;;;;;;;;;;5984888;23;20068;-94
2021/03/10 23:04:51;;;;;;;9.82;3.50;;;;;;;;;;6062740;23;19906;-94
2021/03/10 23:07:28;;;;;;;7.65;1.65;;;;;;;;;;6074752;23;20007;-94
2021/03/10 23:13:32;;;;;;;35.65;6.38;;;;;;;;;;6074559;23;20970;-94
2021/03/10 23:16:06;;;;;;;0.38;0.38;;;;;;;;;;6224565;23;20000;-94
2021/03/10 23:21:41;;;;;;;6.03;4.05;;;;;;;;;;6171588;23;20201;-93
2021/03/10 23:30:59;;;;;;;3.13;1.27;;;;;;;;;;6106271;23;20009;-94
2021/03/10 23:33:59;;;;;;;0.85;0.85;;;;;;;;;;6152189;23;20468;-94
